sensor_id;sensor_type;location;lat;lon;timestamp;P1;durP1;ratioP1;P2;durP2;ratioP2
19617;SDS011;9956;51.006;13.670;2023-03-19T00:01:49;25.85;;;18.45;;
19617;SDS011;9956;51.006;13.670;2023-03-19T00:06:50;24.45;;;19.85;;
19617;SDS011;9956;51.006;13.670;2023-03-19T00:11:50;24.27;;;18.23;;
19617;SDS011;9956;51.006;13.670;2023-03-19T00:16:51;27.80;;;21.85;;
19617;SDS011;9956;51.006;13.670;2023-03-19T00:21:51;33.30;;;25.30;;
19617;SDS011;9956;51.006;13.670;2023-03-19T00:26:52;30.00;;;22.48;;
19617;SDS011;9956;51.006;13.670;2023-03-19T00:31:52;31.60;;;23.23;;
19617;SDS011;9956;51.006;13.670;2023-03-19T00:36:53;30.25;;;22.48;;
19617;SDS011;9956;51.006;13.670;2023-03-19T00:41:55;30.35;;;23.65;;
19617;SDS011;9956;51.006;13.670;2023-03-19T00:46:55;31.63;;;23.38;;
19617;SDS011;9956;51.006;13.670;2023-03-19T00:51:56;30.48;;;22.95;;
19617;SDS011;9956;51.006;13.670;2023-03-19T00:56:56;31.65;;;23.98;;
19617;SDS011;9956;51.006;13.670;2023-03-19T01:01:57;37.67;;;24.40;;
19617;SDS011;9956;51.006;13.670;2023-03-19T01:06:57;33.05;;;25.10;;
19617;SDS011;9956;51.006;13.670;2023-03-19T01:11:59;30.13;;;22.77;;
19617;SDS011;9956;51.006;13.670;2023-03-19T01:17:04;25.33;;;20.75;;
19617;SDS011;9956;51.006;13.670;2023-03-19T01:22:04;30.50;;;22.55;;
19617;SDS011;9956;51.006;13.670;2023-03-19T01:27:07;24.67;;;20.80;;
19617;SDS011;9956;51.006;13.670;2023-03-19T01:32:09;30.15;;;21.98;;
19617;SDS011;9956;51.006;13.670;2023-03-19T01:37:32;29.77;;;23.10;;
19617;SDS011;9956;51.006;13.670;2023-03-19T01:42:33;30.90;;;24.17;;
19617;SDS011;9956;51.006;13.670;2023-03-19T01:48:15;30.38;;;22.25;;
19617;SDS011;9956;51.006;13.670;2023-03-19T01:53:41;30.58;;;22.70;;
19617;SDS011;9956;51.006;13.670;2023-03-19T01:58:55;27.65;;;21.52;;
19617;SDS011;9956;51.006;13.670;2023-03-19T02:04:16;30.98;;;21.77;;
19617;SDS011;9956;51.006;13.670;2023-03-19T02:09:18;26.75;;;21.13;;
19617;SDS011;9956;51.006;13.670;2023-03-19T02:14:18;30.17;;;21.70;;
19617;SDS011;9956;51.006;13.670;2023-03-19T02:19:21;28.58;;;22.23;;
19617;SDS011;9956;51.006;13.670;2023-03-19T02:24:27;25.45;;;20.30;;
19617;SDS011;9956;51.006;13.670;2023-03-19T02:29:43;24.02;;;18.98;;
19617;SDS011;9956;51.006;13.670;2023-03-19T02:34:44;28.33;;;18.83;;
19617;SDS011;9956;51.006;13.670;2023-03-19T02:44:51;26.98;;;19.52;;
19617;SDS011;9956;51.006;13.670;2023-03-19T02:49:51;25.65;;;19.85;;
19617;SDS011;9956;51.006;13.670;2023-03-19T02:54:52;23.70;;;19.73;;
19617;SDS011;9956;51.006;13.670;2023-03-19T02:59:53;27.27;;;20.58;;
19617;SDS011;9956;51.006;13.670;2023-03-19T03:04:53;24.00;;;20.27;;
19617;SDS011;9956;51.006;13.670;2023-03-19T03:09:54;26.40;;;20.05;;
19617;SDS011;9956;51.006;13.670;2023-03-19T03:14:54;30.55;;;21.40;;
19617;SDS011;9956;51.006;13.670;2023-03-19T03:19:54;28.80;;;20.65;;
19617;SDS011;9956;51.006;13.670;2023-03-19T03:24:55;23.63;;;18.48;;
19617;SDS011;9956;51.006;13.670;2023-03-19T03:29:56;25.15;;;19.08;;
19617;SDS011;9956;51.006;13.670;2023-03-19T03:34:57;22.27;;;16.60;;
19617;SDS011;9956;51.006;13.670;2023-03-19T03:39:57;22.48;;;16.38;;
19617;SDS011;9956;51.006;13.670;2023-03-19T03:44:59;21.45;;;15.68;;
19617;SDS011;9956;51.006;13.670;2023-03-19T03:50:00;18.75;;;14.85;;
19617;SDS011;9956;51.006;13.670;2023-03-19T03:55:02;21.17;;;17.17;;
19617;SDS011;9956;51.006;13.670;2023-03-19T04:00:03;18.05;;;15.68;;
19617;SDS011;9956;51.006;13.670;2023-03-19T04:05:13;21.55;;;16.13;;
19617;SDS011;9956;51.006;13.670;2023-03-19T04:10:13;19.95;;;15.38;;
19617;SDS011;9956;51.006;13.670;2023-03-19T04:15:14;21.00;;;15.43;;
19617;SDS011;9956;51.006;13.670;2023-03-19T04:20:18;21.23;;;15.27;;
19617;SDS011;9956;51.006;13.670;2023-03-19T04:25:19;20.30;;;15.70;;
19617;SDS011;9956;51.006;13.670;2023-03-19T04:30:20;23.17;;;18.30;;
19617;SDS011;9956;51.006;13.670;2023-03-19T04:35:20;28.02;;;24.17;;
19617;SDS011;9956;51.006;13.670;2023-03-19T04:40:21;24.27;;;20.05;;
19617;SDS011;9956;51.006;13.670;2023-03-19T04:45:23;26.70;;;21.27;;
19617;SDS011;9956;51.006;13.670;2023-03-19T04:50:24;27.17;;;20.85;;
19617;SDS011;9956;51.006;13.670;2023-03-19T04:55:26;23.67;;;19.95;;
19617;SDS011;9956;51.006;13.670;2023-03-19T05:00:35;24.38;;;18.60;;
19617;SDS011;9956;51.006;13.670;2023-03-19T05:05:36;22.35;;;18.40;;
19617;SDS011;9956;51.006;13.670;2023-03-19T05:10:40;20.60;;;15.38;;
19617;SDS011;9956;51.006;13.670;2023-03-19T05:15:42;20.58;;;15.40;;
19617;SDS011;9956;51.006;13.670;2023-03-19T05:20:44;18.67;;;14.48;;
19617;SDS011;9956;51.006;13.670;2023-03-19T05:25:56;21.92;;;14.10;;
19617;SDS011;9956;51.006;13.670;2023-03-19T05:31:17;22.20;;;14.98;;
19617;SDS011;9956;51.006;13.670;2023-03-19T05:36:22;17.15;;;13.02;;
19617;SDS011;9956;51.006;13.670;2023-03-19T05:41:33;18.90;;;13.52;;
19617;SDS011;9956;51.006;13.670;2023-03-19T05:46:37;21.27;;;13.45;;
19617;SDS011;9956;51.006;13.670;2023-03-19T05:51:38;17.88;;;14.82;;
19617;SDS011;9956;51.006;13.670;2023-03-19T05:56:40;16.50;;;13.13;;
19617;SDS011;9956;51.006;13.670;2023-03-19T06:02:01;15.40;;;13.70;;
19617;SDS011;9956;51.006;13.670;2023-03-19T06:07:02;21.95;;;13.95;;
19617;SDS011;9956;51.006;13.670;2023-03-19T06:12:04;20.33;;;14.35;;
19617;SDS011;9956;51.006;13.670;2023-03-19T06:17:11;17.77;;;13.95;;
19617;SDS011;9956;51.006;13.670;2023-03-19T06:22:12;20.60;;;14.55;;
19617;SDS011;9956;51.006;13.670;2023-03-19T06:27:12;16.85;;;13.23;;
19617;SDS011;9956;51.006;13.670;2023-03-19T06:32:13;18.67;;;14.43;;
19617;SDS011;9956;51.006;13.670;2023-03-19T06:37:16;16.77;;;14.38;;
19617;SDS011;9956;51.006;13.670;2023-03-19T06:42:17;19.42;;;17.38;;
19617;SDS011;9956;51.006;13.670;2023-03-19T06:47:18;25.55;;;21.42;;
19617;SDS011;9956;51.006;13.670;2023-03-19T06:52:19;23.60;;;19.77;;
19617;SDS011;9956;51.006;13.670;2023-03-19T06:57:19;15.40;;;13.77;;
19617;SDS011;9956;51.006;13.670;2023-03-19T07:02:20;15.65;;;12.02;;
19617;SDS011;9956;51.006;13.670;2023-03-19T07:07:22;15.73;;;11.98;;
19617;SDS011;9956;51.006;13.670;2023-03-19T07:12:22;13.07;;;10.65;;
19617;SDS011;9956;51.006;13.670;2023-03-19T07:17:27;15.93;;;11.57;;
19617;SDS011;9956;51.006;13.670;2023-03-19T07:22:27;13.80;;;11.73;;
19617;SDS011;9956;51.006;13.670;2023-03-19T07:27:28;16.42;;;12.68;;
19617;SDS011;9956;51.006;13.670;2023-03-19T07:32:28;15.25;;;12.30;;
19617;SDS011;9956;51.006;13.670;2023-03-19T07:37:28;13.48;;;11.65;;
19617;SDS011;9956;51.006;13.670;2023-03-19T07:42:29;15.75;;;12.25;;
19617;SDS011;9956;51.006;13.670;2023-03-19T07:47:30;16.42;;;12.50;;
19617;SDS011;9956;51.006;13.670;2023-03-19T07:52:30;14.30;;;12.15;;
19617;SDS011;9956;51.006;13.670;2023-03-19T07:57:31;15.00;;;12.63;;
19617;SDS011;9956;51.006;13.670;2023-03-19T08:02:32;13.63;;;11.95;;
19617;SDS011;9956;51.006;13.670;2023-03-19T08:07:32;14.27;;;12.77;;
19617;SDS011;9956;51.006;13.670;2023-03-19T08:12:33;16.35;;;13.55;;
19617;SDS011;9956;51.006;13.670;2023-03-19T08:17:38;17.38;;;13.77;;
19617;SDS011;9956;51.006;13.670;2023-03-19T08:22:39;17.48;;;13.25;;
19617;SDS011;9956;51.006;13.670;2023-03-19T08:27:40;16.25;;;13.60;;
19617;SDS011;9956;51.006;13.670;2023-03-19T08:32:41;15.10;;;13.13;;
19617;SDS011;9956;51.006;13.670;2023-03-19T08:37:43;15.52;;;12.70;;
19617;SDS011;9956;51.006;13.670;2023-03-19T08:42:44;15.15;;;12.25;;
19617;SDS011;9956;51.006;13.670;2023-03-19T08:47:45;12.95;;;11.32;;
19617;SDS011;9956;51.006;13.670;2023-03-19T08:52:45;11.98;;;10.25;;
19617;SDS011;9956;51.006;13.670;2023-03-19T08:57:45;14.05;;;12.07;;
19617;SDS011;9956;51.006;13.670;2023-03-19T09:02:46;15.52;;;11.30;;
19617;SDS011;9956;51.006;13.670;2023-03-19T09:07:47;13.32;;;11.93;;
19617;SDS011;9956;51.006;13.670;2023-03-19T09:12:47;12.77;;;10.68;;
19617;SDS011;9956;51.006;13.670;2023-03-19T09:17:48;12.85;;;10.90;;
19617;SDS011;9956;51.006;13.670;2023-03-19T09:22:48;13.85;;;10.85;;
19617;SDS011;9956;51.006;13.670;2023-03-19T09:27:49;12.50;;;10.18;;
19617;SDS011;9956;51.006;13.670;2023-03-19T09:32:49;14.48;;;10.82;;
19617;SDS011;9956;51.006;13.670;2023-03-19T09:37:50;14.75;;;11.48;;
19617;SDS011;9956;51.006;13.670;2023-03-19T09:42:54;12.82;;;11.27;;
19617;SDS011;9956;51.006;13.670;2023-03-19T09:48:02;11.98;;;10.75;;
19617;SDS011;9956;51.006;13.670;2023-03-19T09:58:30;13.52;;;11.43;;
19617;SDS011;9956;51.006;13.670;2023-03-19T10:20:08;11.80;;;10.52;;
19617;SDS011;9956;51.006;13.670;2023-03-19T10:25:17;11.10;;;9.93;;
19617;SDS011;9956;51.006;13.670;2023-03-19T10:30:21;11.20;;;9.70;;
19617;SDS011;9956;51.006;13.670;2023-03-19T10:35:26;15.10;;;11.52;;
19617;SDS011;9956;51.006;13.670;2023-03-19T10:40:42;11.60;;;10.38;;
19617;SDS011;9956;51.006;13.670;2023-03-19T10:45:46;14.02;;;11.38;;
19617;SDS011;9956;51.006;13.670;2023-03-19T10:50:49;13.15;;;10.38;;
19617;SDS011;9956;51.006;13.670;2023-03-19T10:56:05;11.93;;;10.60;;
19617;SDS011;9956;51.006;13.670;2023-03-19T11:01:08;12.18;;;10.98;;
19617;SDS011;9956;51.006;13.670;2023-03-19T11:06:22;13.48;;;11.52;;
19617;SDS011;9956;51.006;13.670;2023-03-19T11:16:54;13.07;;;11.55;;
19617;SDS011;9956;51.006;13.670;2023-03-19T11:27:32;11.98;;;10.75;;
19617;SDS011;9956;51.006;13.670;2023-03-19T11:38:05;14.23;;;11.68;;
19617;SDS011;9956;51.006;13.670;2023-03-19T11:54:22;12.23;;;10.95;;
19617;SDS011;9956;51.006;13.670;2023-03-19T11:59:50;10.93;;;9.75;;
19617;SDS011;9956;51.006;13.670;2023-03-19T12:26:32;15.63;;;11.15;;
19617;SDS011;9956;51.006;13.670;2023-03-19T12:36:40;12.68;;;10.45;;
19617;SDS011;9956;51.006;13.670;2023-03-19T12:41:46;12.50;;;11.13;;
19617;SDS011;9956;51.006;13.670;2023-03-19T12:46:57;13.20;;;11.10;;
19617;SDS011;9956;51.006;13.670;2023-03-19T12:52:12;13.73;;;11.02;;
19617;SDS011;9956;51.006;13.670;2023-03-19T12:57:24;13.48;;;11.60;;
19617;SDS011;9956;51.006;13.670;2023-03-19T13:12:56;13.32;;;11.70;;
19617;SDS011;9956;51.006;13.670;2023-03-19T13:23:01;13.05;;;11.38;;
19617;SDS011;9956;51.006;13.670;2023-03-19T13:28:05;14.95;;;11.02;;
19617;SDS011;9956;51.006;13.670;2023-03-19T13:33:12;12.85;;;11.43;;
19617;SDS011;9956;51.006;13.670;2023-03-19T13:38:19;12.55;;;10.85;;
19617;SDS011;9956;51.006;13.670;2023-03-19T13:48:34;14.43;;;11.40;;
19617;SDS011;9956;51.006;13.670;2023-03-19T13:53:39;14.07;;;11.68;;
19617;SDS011;9956;51.006;13.670;2023-03-19T14:03:59;12.48;;;10.23;;
19617;SDS011;9956;51.006;13.670;2023-03-19T14:09:03;12.88;;;10.85;;
19617;SDS011;9956;51.006;13.670;2023-03-19T14:14:07;14.00;;;10.90;;
19617;SDS011;9956;51.006;13.670;2023-03-19T14:19:17;14.30;;;10.23;;
19617;SDS011;9956;51.006;13.670;2023-03-19T14:29:32;12.60;;;9.65;;
19617;SDS011;9956;51.006;13.670;2023-03-19T14:34:38;9.35;;;8.05;;
19617;SDS011;9956;51.006;13.670;2023-03-19T14:39:41;11.68;;;8.45;;
19617;SDS011;9956;51.006;13.670;2023-03-19T14:55:50;9.23;;;7.80;;
19617;SDS011;9956;51.006;13.670;2023-03-19T15:00:52;11.07;;;9.27;;
19617;SDS011;9956;51.006;13.670;2023-03-19T15:05:57;12.63;;;9.60;;
19617;SDS011;9956;51.006;13.670;2023-03-19T15:16:20;9.00;;;6.40;;
19617;SDS011;9956;51.006;13.670;2023-03-19T15:21:24;3.95;;;2.83;;
19617;SDS011;9956;51.006;13.670;2023-03-19T15:26:44;2.92;;;2.53;;
19617;SDS011;9956;51.006;13.670;2023-03-19T15:31:48;5.82;;;2.60;;
19617;SDS011;9956;51.006;13.670;2023-03-19T15:37:03;3.88;;;2.30;;
19617;SDS011;9956;51.006;13.670;2023-03-19T15:42:06;5.60;;;3.33;;
19617;SDS011;9956;51.006;13.670;2023-03-19T15:47:07;3.55;;;3.05;;
19617;SDS011;9956;51.006;13.670;2023-03-19T15:52:11;4.88;;;2.72;;
19617;SDS011;9956;51.006;13.670;2023-03-19T15:57:14;4.93;;;2.63;;
19617;SDS011;9956;51.006;13.670;2023-03-19T16:02:19;5.25;;;3.33;;
19617;SDS011;9956;51.006;13.670;2023-03-19T16:12:35;4.63;;;2.17;;
19617;SDS011;9956;51.006;13.670;2023-03-19T16:17:41;4.57;;;2.80;;
19617;SDS011;9956;51.006;13.670;2023-03-19T16:22:43;3.22;;;2.22;;
19617;SDS011;9956;51.006;13.670;2023-03-19T16:27:53;3.63;;;2.53;;
19617;SDS011;9956;51.006;13.670;2023-03-19T16:33:01;3.03;;;2.60;;
19617;SDS011;9956;51.006;13.670;2023-03-19T16:43:19;4.07;;;3.33;;
19617;SDS011;9956;51.006;13.670;2023-03-19T16:48:21;2.55;;;2.33;;
19617;SDS011;9956;51.006;13.670;2023-03-19T16:53:23;3.40;;;1.90;;
19617;SDS011;9956;51.006;13.670;2023-03-19T16:58:35;2.97;;;2.25;;
19617;SDS011;9956;51.006;13.670;2023-03-19T17:03:38;4.93;;;2.72;;
19617;SDS011;9956;51.006;13.670;2023-03-19T17:08:38;3.60;;;2.67;;
19617;SDS011;9956;51.006;13.670;2023-03-19T17:13:39;5.28;;;3.75;;
19617;SDS011;9956;51.006;13.670;2023-03-19T17:18:42;3.15;;;2.20;;
19617;SDS011;9956;51.006;13.670;2023-03-19T17:23:43;2.90;;;2.28;;
19617;SDS011;9956;51.006;13.670;2023-03-19T17:28:43;2.78;;;1.85;;
19617;SDS011;9956;51.006;13.670;2023-03-19T17:33:44;3.28;;;2.00;;
19617;SDS011;9956;51.006;13.670;2023-03-19T17:38:44;2.55;;;1.80;;
19617;SDS011;9956;51.006;13.670;2023-03-19T17:43:45;2.85;;;2.40;;
19617;SDS011;9956;51.006;13.670;2023-03-19T17:48:47;3.97;;;2.90;;
19617;SDS011;9956;51.006;13.670;2023-03-19T17:53:49;3.08;;;2.78;;
19617;SDS011;9956;51.006;13.670;2023-03-19T17:58:51;4.38;;;3.20;;
19617;SDS011;9956;51.006;13.670;2023-03-19T18:03:52;3.65;;;2.85;;
19617;SDS011;9956;51.006;13.670;2023-03-19T18:08:54;6.30;;;4.20;;
19617;SDS011;9956;51.006;13.670;2023-03-19T18:13:54;5.45;;;3.78;;
19617;SDS011;9956;51.006;13.670;2023-03-19T18:18:57;7.75;;;4.85;;
19617;SDS011;9956;51.006;13.670;2023-03-19T18:23:59;9.00;;;6.85;;
19617;SDS011;9956;51.006;13.670;2023-03-19T18:29:00;10.43;;;7.85;;
19617;SDS011;9956;51.006;13.670;2023-03-19T18:34:01;12.32;;;7.43;;
19617;SDS011;9956;51.006;13.670;2023-03-19T18:39:05;12.90;;;8.90;;
19617;SDS011;9956;51.006;13.670;2023-03-19T18:44:09;17.10;;;10.50;;
19617;SDS011;9956;51.006;13.670;2023-03-19T18:54:15;13.45;;;10.20;;
19617;SDS011;9956;51.006;13.670;2023-03-19T18:59:19;14.25;;;11.10;;
19617;SDS011;9956;51.006;13.670;2023-03-19T19:04:21;19.85;;;15.05;;
19617;SDS011;9956;51.006;13.670;2023-03-19T19:09:22;41.85;;;26.50;;
19617;SDS011;9956;51.006;13.670;2023-03-19T19:14:22;32.33;;;24.38;;
19617;SDS011;9956;51.006;13.670;2023-03-19T19:19:23;33.38;;;21.70;;
19617;SDS011;9956;51.006;13.670;2023-03-19T19:24:26;22.00;;;17.40;;
19617;SDS011;9956;51.006;13.670;2023-03-19T19:29:27;13.38;;;11.93;;
19617;SDS011;9956;51.006;13.670;2023-03-19T19:34:28;15.90;;;12.57;;
19617;SDS011;9956;51.006;13.670;2023-03-19T19:39:28;21.25;;;16.55;;
19617;SDS011;9956;51.006;13.670;2023-03-19T19:44:29;21.85;;;16.27;;
19617;SDS011;9956;51.006;13.670;2023-03-19T19:49:30;17.73;;;15.50;;
19617;SDS011;9956;51.006;13.670;2023-03-19T19:54:30;23.65;;;19.50;;
19617;SDS011;9956;51.006;13.670;2023-03-19T19:59:31;25.48;;;20.02;;
19617;SDS011;9956;51.006;13.670;2023-03-19T20:04:31;21.40;;;18.13;;
19617;SDS011;9956;51.006;13.670;2023-03-19T20:09:32;22.95;;;16.73;;
19617;SDS011;9956;51.006;13.670;2023-03-19T20:14:32;24.05;;;20.35;;
19617;SDS011;9956;51.006;13.670;2023-03-19T20:19:33;23.60;;;18.10;;
19617;SDS011;9956;51.006;13.670;2023-03-19T20:24:33;20.42;;;18.23;;
19617;SDS011;9956;51.006;13.670;2023-03-19T20:29:34;27.02;;;23.02;;
19617;SDS011;9956;51.006;13.670;2023-03-19T20:34:36;65.13;;;40.30;;
19617;SDS011;9956;51.006;13.670;2023-03-19T20:39:36;43.33;;;31.35;;
19617;SDS011;9956;51.006;13.670;2023-03-19T20:44:37;32.42;;;25.13;;
19617;SDS011;9956;51.006;13.670;2023-03-19T20:49:37;33.55;;;24.77;;
19617;SDS011;9956;51.006;13.670;2023-03-19T20:54:38;30.92;;;23.33;;
19617;SDS011;9956;51.006;13.670;2023-03-19T20:59:40;33.45;;;23.10;;
19617;SDS011;9956;51.006;13.670;2023-03-19T21:04:44;27.23;;;21.27;;
19617;SDS011;9956;51.006;13.670;2023-03-19T21:09:45;36.42;;;28.80;;
19617;SDS011;9956;51.006;13.670;2023-03-19T21:14:45;27.75;;;21.73;;
19617;SDS011;9956;51.006;13.670;2023-03-19T21:19:46;31.23;;;25.60;;
19617;SDS011;9956;51.006;13.670;2023-03-19T21:24:47;32.80;;;24.15;;
19617;SDS011;9956;51.006;13.670;2023-03-19T21:29:47;23.00;;;17.80;;
19617;SDS011;9956;51.006;13.670;2023-03-19T21:34:49;17.08;;;15.25;;
19617;SDS011;9956;51.006;13.670;2023-03-19T21:39:51;19.52;;;13.48;;
19617;SDS011;9956;51.006;13.670;2023-03-19T21:44:55;16.67;;;14.65;;
19617;SDS011;9956;51.006;13.670;2023-03-19T21:49:57;21.17;;;16.65;;
19617;SDS011;9956;51.006;13.670;2023-03-19T21:54:59;28.20;;;19.15;;
19617;SDS011;9956;51.006;13.670;2023-03-19T22:00:00;27.10;;;20.83;;
19617;SDS011;9956;51.006;13.670;2023-03-19T22:05:00;20.33;;;16.35;;
19617;SDS011;9956;51.006;13.670;2023-03-19T22:10:01;19.30;;;14.18;;
19617;SDS011;9956;51.006;13.670;2023-03-19T22:15:02;22.35;;;17.27;;
19617;SDS011;9956;51.006;13.670;2023-03-19T22:20:04;21.65;;;15.27;;
19617;SDS011;9956;51.006;13.670;2023-03-19T22:25:05;18.13;;;15.57;;
19617;SDS011;9956;51.006;13.670;2023-03-19T22:30:06;22.35;;;17.85;;
19617;SDS011;9956;51.006;13.670;2023-03-19T22:35:30;22.63;;;16.98;;
19617;SDS011;9956;51.006;13.670;2023-03-19T22:40:31;24.08;;;17.10;;
19617;SDS011;9956;51.006;13.670;2023-03-19T22:45:31;21.10;;;15.07;;
19617;SDS011;9956;51.006;13.670;2023-03-19T22:50:32;20.10;;;16.60;;
19617;SDS011;9956;51.006;13.670;2023-03-19T22:55:32;19.33;;;15.57;;
19617;SDS011;9956;51.006;13.670;2023-03-19T23:00:33;17.52;;;13.85;;
19617;SDS011;9956;51.006;13.670;2023-03-19T23:05:34;15.10;;;12.80;;
19617;SDS011;9956;51.006;13.670;2023-03-19T23:10:36;15.85;;;12.40;;
19617;SDS011;9956;51.006;13.670;2023-03-19T23:15:36;18.42;;;13.02;;
19617;SDS011;9956;51.006;13.670;2023-03-19T23:20:37;13.80;;;10.50;;
19617;SDS011;9956;51.006;13.670;2023-03-19T23:25:37;12.40;;;10.18;;
19617;SDS011;9956;51.006;13.670;2023-03-19T23:30:38;13.35;;;10.63;;
19617;SDS011;9956;51.006;13.670;2023-03-19T23:35:40;12.38;;;10.82;;
19617;SDS011;9956;51.006;13.670;2023-03-19T23:40:41;12.20;;;9.75;;
19617;SDS011;9956;51.006;13.670;2023-03-19T23:45:43;10.73;;;8.00;;
19617;SDS011;9956;51.006;13.670;2023-03-19T23:50:44;8.52;;;7.70;;
19617;SDS011;9956;51.006;13.670;2023-03-19T23:55:55;8.20;;;7.22;;
